sensor_id;sensor_type;location;lat;lon;timestamp;P1;durP1;ratioP1;P2;durP2;ratioP2
52368;SDS011;38298;50.346;3.526;2022-08-19T00:00:06;29.35;;;16.60;;
52368;SDS011;38298;50.346;3.526;2022-08-19T00:02:33;31.08;;;16.55;;
52368;SDS011;38298;50.346;3.526;2022-08-19T00:05:00;29.90;;;16.10;;
52368;SDS011;38298;50.346;3.526;2022-08-19T00:07:26;31.05;;;16.00;;
52368;SDS011;38298;50.346;3.526;2022-08-19T00:09:52;23.77;;;13.85;;
52368;SDS011;38298;50.346;3.526;2022-08-19T00:12:19;24.33;;;13.15;;
52368;SDS011;38298;50.346;3.526;2022-08-19T00:14:45;21.42;;;12.63;;
52368;SDS011;38298;50.346;3.526;2022-08-19T00:17:11;24.83;;;13.02;;
52368;SDS011;38298;50.346;3.526;2022-08-19T00:19:37;25.40;;;12.57;;
52368;SDS011;38298;50.346;3.526;2022-08-19T00:22:04;21.90;;;12.80;;
52368;SDS011;38298;50.346;3.526;2022-08-19T00:24:31;20.63;;;12.43;;
52368;SDS011;38298;50.346;3.526;2022-08-19T00:26:57;21.33;;;12.32;;
52368;SDS011;38298;50.346;3.526;2022-08-19T00:29:23;24.52;;;11.48;;
52368;SDS011;38298;50.346;3.526;2022-08-19T00:31:50;19.52;;;11.95;;
52368;SDS011;38298;50.346;3.526;2022-08-19T00:34:19;20.63;;;10.95;;
52368;SDS011;38298;50.346;3.526;2022-08-19T00:36:46;16.20;;;9.38;;
52368;SDS011;38298;50.346;3.526;2022-08-19T00:39:12;13.70;;;8.35;;
52368;SDS011;38298;50.346;3.526;2022-08-19T00:41:39;12.68;;;7.05;;
52368;SDS011;38298;50.346;3.526;2022-08-19T00:46:38;10.05;;;6.85;;
52368;SDS011;38298;50.346;3.526;2022-08-19T00:49:49;9.27;;;5.90;;
52368;SDS011;38298;50.346;3.526;2022-08-19T00:54:56;14.00;;;6.28;;
52368;SDS011;38298;50.346;3.526;2022-08-19T00:57:25;10.75;;;5.75;;
52368;SDS011;38298;50.346;3.526;2022-08-19T00:59:52;9.30;;;5.10;;
52368;SDS011;38298;50.346;3.526;2022-08-19T01:02:19;11.80;;;6.15;;
52368;SDS011;38298;50.346;3.526;2022-08-19T01:04:46;11.65;;;6.72;;
52368;SDS011;38298;50.346;3.526;2022-08-19T01:07:12;12.85;;;6.80;;
52368;SDS011;38298;50.346;3.526;2022-08-19T01:09:38;17.00;;;8.13;;
52368;SDS011;38298;50.346;3.526;2022-08-19T01:12:04;13.43;;;7.60;;
52368;SDS011;38298;50.346;3.526;2022-08-19T01:14:30;11.93;;;6.57;;
52368;SDS011;38298;50.346;3.526;2022-08-19T01:16:57;12.80;;;7.05;;
52368;SDS011;38298;50.346;3.526;2022-08-19T01:19:29;13.85;;;7.18;;
52368;SDS011;38298;50.346;3.526;2022-08-19T01:24:49;14.38;;;7.18;;
52368;SDS011;38298;50.346;3.526;2022-08-19T01:27:15;13.60;;;7.35;;
52368;SDS011;38298;50.346;3.526;2022-08-19T01:29:42;15.73;;;7.85;;
52368;SDS011;38298;50.346;3.526;2022-08-19T01:32:11;17.50;;;8.18;;
52368;SDS011;38298;50.346;3.526;2022-08-19T01:34:37;20.88;;;7.22;;
52368;SDS011;38298;50.346;3.526;2022-08-19T01:37:08;14.73;;;7.20;;
52368;SDS011;38298;50.346;3.526;2022-08-19T01:39:36;12.68;;;6.78;;
52368;SDS011;38298;50.346;3.526;2022-08-19T01:42:02;14.05;;;7.05;;
52368;SDS011;38298;50.346;3.526;2022-08-19T01:44:29;15.00;;;6.90;;
52368;SDS011;38298;50.346;3.526;2022-08-19T01:46:55;16.38;;;7.18;;
52368;SDS011;38298;50.346;3.526;2022-08-19T01:49:22;12.35;;;6.57;;
52368;SDS011;38298;50.346;3.526;2022-08-19T01:51:49;13.40;;;6.93;;
52368;SDS011;38298;50.346;3.526;2022-08-19T01:54:16;11.52;;;6.25;;
52368;SDS011;38298;50.346;3.526;2022-08-19T01:56:42;10.18;;;6.07;;
52368;SDS011;38298;50.346;3.526;2022-08-19T01:59:11;13.50;;;6.63;;
52368;SDS011;38298;50.346;3.526;2022-08-19T02:01:38;12.27;;;6.63;;
52368;SDS011;38298;50.346;3.526;2022-08-19T02:04:04;15.38;;;6.63;;
52368;SDS011;38298;50.346;3.526;2022-08-19T02:06:31;11.25;;;5.88;;
52368;SDS011;38298;50.346;3.526;2022-08-19T02:08:58;14.45;;;6.32;;
52368;SDS011;38298;50.346;3.526;2022-08-19T02:11:28;13.27;;;5.72;;
52368;SDS011;38298;50.346;3.526;2022-08-19T02:13:56;11.70;;;5.57;;
52368;SDS011;38298;50.346;3.526;2022-08-19T02:16:22;10.32;;;5.10;;
52368;SDS011;38298;50.346;3.526;2022-08-19T02:18:48;9.52;;;4.75;;
52368;SDS011;38298;50.346;3.526;2022-08-19T02:21:15;8.73;;;5.13;;
52368;SDS011;38298;50.346;3.526;2022-08-19T02:23:42;8.52;;;5.00;;
52368;SDS011;38298;50.346;3.526;2022-08-19T02:26:08;10.93;;;5.13;;
52368;SDS011;38298;50.346;3.526;2022-08-19T02:28:35;15.48;;;5.07;;
52368;SDS011;38298;50.346;3.526;2022-08-19T02:31:01;8.18;;;4.47;;
52368;SDS011;38298;50.346;3.526;2022-08-19T02:33:27;10.55;;;4.40;;
52368;SDS011;38298;50.346;3.526;2022-08-19T02:35:53;8.23;;;4.45;;
52368;SDS011;38298;50.346;3.526;2022-08-19T02:38:19;12.90;;;4.75;;
52368;SDS011;38298;50.346;3.526;2022-08-19T02:40:53;11.35;;;4.55;;
52368;SDS011;38298;50.346;3.526;2022-08-19T02:43:20;11.32;;;4.60;;
52368;SDS011;38298;50.346;3.526;2022-08-19T02:45:47;7.32;;;3.90;;
52368;SDS011;38298;50.346;3.526;2022-08-19T02:48:14;10.60;;;4.72;;
52368;SDS011;38298;50.346;3.526;2022-08-19T02:50:42;9.50;;;4.47;;
52368;SDS011;38298;50.346;3.526;2022-08-19T02:53:08;9.35;;;3.85;;
52368;SDS011;38298;50.346;3.526;2022-08-19T02:55:34;9.32;;;4.55;;
52368;SDS011;38298;50.346;3.526;2022-08-19T02:58:00;8.85;;;3.85;;
52368;SDS011;38298;50.346;3.526;2022-08-19T03:00:27;5.65;;;3.63;;
52368;SDS011;38298;50.346;3.526;2022-08-19T03:02:53;9.60;;;3.67;;
52368;SDS011;38298;50.346;3.526;2022-08-19T03:05:19;6.50;;;3.35;;
52368;SDS011;38298;50.346;3.526;2022-08-19T03:07:45;9.20;;;3.40;;
52368;SDS011;38298;50.346;3.526;2022-08-19T03:10:11;5.05;;;3.63;;
52368;SDS011;38298;50.346;3.526;2022-08-19T03:12:38;8.45;;;3.35;;
52368;SDS011;38298;50.346;3.526;2022-08-19T03:15:05;11.30;;;4.47;;
52368;SDS011;38298;50.346;3.526;2022-08-19T03:17:32;15.68;;;4.00;;
52368;SDS011;38298;50.346;3.526;2022-08-19T03:19:58;7.72;;;3.55;;
52368;SDS011;38298;50.346;3.526;2022-08-19T03:22:24;7.45;;;3.83;;
52368;SDS011;38298;50.346;3.526;2022-08-19T03:24:51;7.10;;;3.97;;
52368;SDS011;38298;50.346;3.526;2022-08-19T03:27:17;9.65;;;3.78;;
52368;SDS011;38298;50.346;3.526;2022-08-19T03:29:43;7.85;;;3.85;;
52368;SDS011;38298;50.346;3.526;2022-08-19T03:32:10;9.05;;;4.00;;
52368;SDS011;38298;50.346;3.526;2022-08-19T03:34:37;5.88;;;3.70;;
52368;SDS011;38298;50.346;3.526;2022-08-19T03:37:05;6.07;;;3.42;;
52368;SDS011;38298;50.346;3.526;2022-08-19T03:39:32;7.00;;;3.75;;
52368;SDS011;38298;50.346;3.526;2022-08-19T03:41:58;5.45;;;3.42;;
52368;SDS011;38298;50.346;3.526;2022-08-19T03:44:28;6.82;;;3.53;;
52368;SDS011;38298;50.346;3.526;2022-08-19T03:46:55;11.27;;;3.83;;
52368;SDS011;38298;50.346;3.526;2022-08-19T03:49:22;5.78;;;3.53;;
52368;SDS011;38298;50.346;3.526;2022-08-19T03:51:49;12.68;;;4.38;;
52368;SDS011;38298;50.346;3.526;2022-08-19T03:54:16;7.45;;;3.70;;
52368;SDS011;38298;50.346;3.526;2022-08-19T03:56:43;6.10;;;3.88;;
52368;SDS011;38298;50.346;3.526;2022-08-19T03:59:15;10.30;;;3.78;;
52368;SDS011;38298;50.346;3.526;2022-08-19T04:01:41;7.63;;;3.53;;
52368;SDS011;38298;50.346;3.526;2022-08-19T04:04:08;8.73;;;3.80;;
52368;SDS011;38298;50.346;3.526;2022-08-19T04:06:34;7.15;;;3.40;;
52368;SDS011;38298;50.346;3.526;2022-08-19T04:09:02;6.78;;;3.42;;
52368;SDS011;38298;50.346;3.526;2022-08-19T04:11:30;7.65;;;3.40;;
52368;SDS011;38298;50.346;3.526;2022-08-19T04:13:56;9.63;;;3.88;;
52368;SDS011;38298;50.346;3.526;2022-08-19T04:16:23;7.07;;;3.03;;
52368;SDS011;38298;50.346;3.526;2022-08-19T04:18:49;5.50;;;3.10;;
52368;SDS011;38298;50.346;3.526;2022-08-19T04:21:17;7.07;;;3.03;;
52368;SDS011;38298;50.346;3.526;2022-08-19T04:23:43;7.60;;;3.08;;
52368;SDS011;38298;50.346;3.526;2022-08-19T04:26:17;4.72;;;3.40;;
52368;SDS011;38298;50.346;3.526;2022-08-19T04:28:43;6.13;;;3.00;;
52368;SDS011;38298;50.346;3.526;2022-08-19T04:31:19;6.47;;;3.20;;
52368;SDS011;38298;50.346;3.526;2022-08-19T04:33:45;8.95;;;3.30;;
52368;SDS011;38298;50.346;3.526;2022-08-19T04:36:15;4.25;;;2.78;;
52368;SDS011;38298;50.346;3.526;2022-08-19T04:38:42;8.20;;;2.92;;
52368;SDS011;38298;50.346;3.526;2022-08-19T04:41:08;5.30;;;3.08;;
52368;SDS011;38298;50.346;3.526;2022-08-19T04:43:53;6.45;;;2.85;;
52368;SDS011;38298;50.346;3.526;2022-08-19T04:46:19;6.75;;;3.67;;
52368;SDS011;38298;50.346;3.526;2022-08-19T04:48:45;10.75;;;3.40;;
52368;SDS011;38298;50.346;3.526;2022-08-19T04:51:12;8.15;;;3.03;;
52368;SDS011;38298;50.346;3.526;2022-08-19T04:53:38;7.78;;;3.00;;
52368;SDS011;38298;50.346;3.526;2022-08-19T04:56:10;9.43;;;3.40;;
52368;SDS011;38298;50.346;3.526;2022-08-19T04:58:37;5.93;;;2.80;;
52368;SDS011;38298;50.346;3.526;2022-08-19T05:01:03;5.72;;;2.97;;
52368;SDS011;38298;50.346;3.526;2022-08-19T05:03:29;6.10;;;2.75;;
52368;SDS011;38298;50.346;3.526;2022-08-19T05:05:58;4.85;;;2.53;;
52368;SDS011;38298;50.346;3.526;2022-08-19T05:08:24;5.70;;;2.63;;
52368;SDS011;38298;50.346;3.526;2022-08-19T05:10:51;8.80;;;3.10;;
52368;SDS011;38298;50.346;3.526;2022-08-19T05:13:17;8.02;;;3.10;;
52368;SDS011;38298;50.346;3.526;2022-08-19T05:15:53;7.68;;;2.97;;
52368;SDS011;38298;50.346;3.526;2022-08-19T05:18:20;6.57;;;2.47;;
52368;SDS011;38298;50.346;3.526;2022-08-19T05:21:08;5.18;;;2.65;;
52368;SDS011;38298;50.346;3.526;2022-08-19T05:23:53;9.27;;;2.90;;
52368;SDS011;38298;50.346;3.526;2022-08-19T05:26:19;7.18;;;2.42;;
52368;SDS011;38298;50.346;3.526;2022-08-19T05:28:45;6.07;;;2.85;;
52368;SDS011;38298;50.346;3.526;2022-08-19T05:31:11;8.70;;;2.63;;
52368;SDS011;38298;50.346;3.526;2022-08-19T05:33:37;11.88;;;2.97;;
52368;SDS011;38298;50.346;3.526;2022-08-19T05:36:05;10.18;;;2.40;;
52368;SDS011;38298;50.346;3.526;2022-08-19T05:38:33;5.93;;;2.47;;
52368;SDS011;38298;50.346;3.526;2022-08-19T05:41:00;4.05;;;3.33;;
52368;SDS011;38298;50.346;3.526;2022-08-19T05:43:27;5.15;;;2.92;;
52368;SDS011;38298;50.346;3.526;2022-08-19T05:45:53;8.98;;;3.20;;
52368;SDS011;38298;50.346;3.526;2022-08-19T05:48:20;7.07;;;3.17;;
52368;SDS011;38298;50.346;3.526;2022-08-19T05:50:46;7.03;;;3.20;;
52368;SDS011;38298;50.346;3.526;2022-08-19T05:53:15;8.80;;;3.10;;
52368;SDS011;38298;50.346;3.526;2022-08-19T05:55:41;9.68;;;3.10;;
52368;SDS011;38298;50.346;3.526;2022-08-19T05:58:07;9.00;;;3.08;;
52368;SDS011;38298;50.346;3.526;2022-08-19T06:00:34;6.95;;;3.22;;
52368;SDS011;38298;50.346;3.526;2022-08-19T06:03:00;7.50;;;3.65;;
52368;SDS011;38298;50.346;3.526;2022-08-19T06:05:29;8.63;;;3.25;;
52368;SDS011;38298;50.346;3.526;2022-08-19T06:07:55;9.32;;;3.05;;
52368;SDS011;38298;50.346;3.526;2022-08-19T06:10:21;13.20;;;3.38;;
52368;SDS011;38298;50.346;3.526;2022-08-19T06:12:47;8.30;;;3.40;;
52368;SDS011;38298;50.346;3.526;2022-08-19T06:15:14;10.35;;;3.78;;
52368;SDS011;38298;50.346;3.526;2022-08-19T06:17:40;9.77;;;3.45;;
52368;SDS011;38298;50.346;3.526;2022-08-19T06:20:10;11.20;;;3.35;;
52368;SDS011;38298;50.346;3.526;2022-08-19T06:22:39;5.93;;;3.63;;
52368;SDS011;38298;50.346;3.526;2022-08-19T06:25:05;7.45;;;3.33;;
52368;SDS011;38298;50.346;3.526;2022-08-19T06:27:32;8.60;;;3.50;;
52368;SDS011;38298;50.346;3.526;2022-08-19T06:29:58;7.97;;;4.03;;
52368;SDS011;38298;50.346;3.526;2022-08-19T06:32:24;10.13;;;3.80;;
52368;SDS011;38298;50.346;3.526;2022-08-19T06:34:50;5.93;;;2.78;;
52368;SDS011;38298;50.346;3.526;2022-08-19T06:37:16;7.60;;;3.17;;
52368;SDS011;38298;50.346;3.526;2022-08-19T06:39:43;7.38;;;3.25;;
52368;SDS011;38298;50.346;3.526;2022-08-19T06:42:10;6.68;;;3.38;;
52368;SDS011;38298;50.346;3.526;2022-08-19T06:44:41;8.90;;;3.03;;
52368;SDS011;38298;50.346;3.526;2022-08-19T06:47:08;8.18;;;3.63;;
52368;SDS011;38298;50.346;3.526;2022-08-19T06:49:35;8.05;;;3.13;;
52368;SDS011;38298;50.346;3.526;2022-08-19T06:52:01;6.38;;;3.30;;
52368;SDS011;38298;50.346;3.526;2022-08-19T06:54:28;9.15;;;3.60;;
52368;SDS011;38298;50.346;3.526;2022-08-19T06:56:55;11.05;;;3.00;;
52368;SDS011;38298;50.346;3.526;2022-08-19T06:59:22;9.10;;;3.28;;
52368;SDS011;38298;50.346;3.526;2022-08-19T07:01:52;9.05;;;3.15;;
52368;SDS011;38298;50.346;3.526;2022-08-19T07:04:20;7.88;;;3.63;;
52368;SDS011;38298;50.346;3.526;2022-08-19T07:06:46;5.15;;;3.67;;
52368;SDS011;38298;50.346;3.526;2022-08-19T07:09:13;6.25;;;3.38;;
52368;SDS011;38298;50.346;3.526;2022-08-19T07:11:43;7.60;;;3.22;;
52368;SDS011;38298;50.346;3.526;2022-08-19T07:14:09;7.03;;;3.33;;
52368;SDS011;38298;50.346;3.526;2022-08-19T07:16:35;8.15;;;3.60;;
52368;SDS011;38298;50.346;3.526;2022-08-19T07:19:01;9.63;;;3.05;;
52368;SDS011;38298;50.346;3.526;2022-08-19T07:21:27;5.72;;;3.30;;
52368;SDS011;38298;50.346;3.526;2022-08-19T07:23:54;6.80;;;3.13;;
52368;SDS011;38298;50.346;3.526;2022-08-19T07:26:23;6.95;;;3.45;;
52368;SDS011;38298;50.346;3.526;2022-08-19T07:28:50;6.20;;;3.30;;
52368;SDS011;38298;50.346;3.526;2022-08-19T07:31:17;9.05;;;3.10;;
52368;SDS011;38298;50.346;3.526;2022-08-19T07:33:44;6.38;;;2.83;;
52368;SDS011;38298;50.346;3.526;2022-08-19T07:36:11;9.93;;;3.42;;
52368;SDS011;38298;50.346;3.526;2022-08-19T07:38:38;7.07;;;3.40;;
52368;SDS011;38298;50.346;3.526;2022-08-19T07:41:05;12.30;;;2.80;;
52368;SDS011;38298;50.346;3.526;2022-08-19T07:43:32;4.60;;;2.92;;
52368;SDS011;38298;50.346;3.526;2022-08-19T07:45:58;9.88;;;3.00;;
52368;SDS011;38298;50.346;3.526;2022-08-19T07:48:25;10.57;;;3.22;;
52368;SDS011;38298;50.346;3.526;2022-08-19T07:50:55;5.55;;;3.20;;
52368;SDS011;38298;50.346;3.526;2022-08-19T07:53:22;5.90;;;2.67;;
52368;SDS011;38298;50.346;3.526;2022-08-19T07:55:48;5.32;;;2.97;;
52368;SDS011;38298;50.346;3.526;2022-08-19T07:58:16;6.70;;;2.78;;
52368;SDS011;38298;50.346;3.526;2022-08-19T08:00:43;4.93;;;3.03;;
52368;SDS011;38298;50.346;3.526;2022-08-19T08:03:09;6.88;;;2.75;;
52368;SDS011;38298;50.346;3.526;2022-08-19T08:05:35;5.70;;;3.03;;
52368;SDS011;38298;50.346;3.526;2022-08-19T08:08:20;5.07;;;2.90;;
52368;SDS011;38298;50.346;3.526;2022-08-19T08:11:06;6.18;;;2.67;;
52368;SDS011;38298;50.346;3.526;2022-08-19T08:13:32;11.43;;;3.10;;
52368;SDS011;38298;50.346;3.526;2022-08-19T08:16:00;5.38;;;2.67;;
52368;SDS011;38298;50.346;3.526;2022-08-19T08:18:26;4.40;;;2.90;;
52368;SDS011;38298;50.346;3.526;2022-08-19T08:20:52;5.72;;;2.17;;
52368;SDS011;38298;50.346;3.526;2022-08-19T08:23:18;3.85;;;2.22;;
52368;SDS011;38298;50.346;3.526;2022-08-19T08:25:47;7.90;;;2.47;;
52368;SDS011;38298;50.346;3.526;2022-08-19T08:28:14;4.30;;;2.17;;
52368;SDS011;38298;50.346;3.526;2022-08-19T08:30:40;3.60;;;2.38;;
52368;SDS011;38298;50.346;3.526;2022-08-19T08:33:07;4.88;;;2.08;;
52368;SDS011;38298;50.346;3.526;2022-08-19T08:35:33;6.63;;;2.10;;
52368;SDS011;38298;50.346;3.526;2022-08-19T08:37:59;2.95;;;1.98;;
52368;SDS011;38298;50.346;3.526;2022-08-19T08:40:49;4.40;;;2.40;;
52368;SDS011;38298;50.346;3.526;2022-08-19T08:45:50;7.07;;;2.17;;
52368;SDS011;38298;50.346;3.526;2022-08-19T08:48:24;5.35;;;2.20;;
52368;SDS011;38298;50.346;3.526;2022-08-19T08:50:53;3.83;;;2.08;;
52368;SDS011;38298;50.346;3.526;2022-08-19T08:53:20;9.10;;;2.20;;
52368;SDS011;38298;50.346;3.526;2022-08-19T08:55:47;1.70;;;1.60;;
52368;SDS011;38298;50.346;3.526;2022-08-19T08:58:16;6.07;;;2.17;;
52368;SDS011;38298;50.346;3.526;2022-08-19T09:00:44;2.33;;;1.87;;
52368;SDS011;38298;50.346;3.526;2022-08-19T09:03:18;4.47;;;1.95;;
52368;SDS011;38298;50.346;3.526;2022-08-19T09:06:01;6.05;;;1.83;;
52368;SDS011;38298;50.346;3.526;2022-08-19T09:08:33;5.45;;;2.00;;
52368;SDS011;38298;50.346;3.526;2022-08-19T09:11:04;5.72;;;2.00;;
52368;SDS011;38298;50.346;3.526;2022-08-19T09:16:18;4.90;;;2.35;;
52368;SDS011;38298;50.346;3.526;2022-08-19T09:18:54;5.38;;;2.00;;
52368;SDS011;38298;50.346;3.526;2022-08-19T09:21:23;6.60;;;2.15;;
52368;SDS011;38298;50.346;3.526;2022-08-19T09:23:53;6.35;;;1.92;;
52368;SDS011;38298;50.346;3.526;2022-08-19T09:26:22;5.10;;;1.88;;
52368;SDS011;38298;50.346;3.526;2022-08-19T09:28:49;7.70;;;2.00;;
52368;SDS011;38298;50.346;3.526;2022-08-19T09:31:19;3.50;;;1.90;;
52368;SDS011;38298;50.346;3.526;2022-08-19T09:33:46;5.75;;;1.92;;
52368;SDS011;38298;50.346;3.526;2022-08-19T09:36:13;6.50;;;2.08;;
52368;SDS011;38298;50.346;3.526;2022-08-19T09:38:40;4.15;;;1.70;;
52368;SDS011;38298;50.346;3.526;2022-08-19T09:41:08;3.55;;;1.70;;
52368;SDS011;38298;50.346;3.526;2022-08-19T09:43:37;2.20;;;1.58;;
52368;SDS011;38298;50.346;3.526;2022-08-19T09:46:03;4.45;;;1.63;;
52368;SDS011;38298;50.346;3.526;2022-08-19T09:48:40;6.85;;;2.00;;
52368;SDS011;38298;50.346;3.526;2022-08-19T09:51:11;1.92;;;1.13;;
52368;SDS011;38298;50.346;3.526;2022-08-19T09:53:40;2.13;;;0.80;;
52368;SDS011;38298;50.346;3.526;2022-08-19T09:56:07;1.58;;;0.60;;
52368;SDS011;38298;50.346;3.526;2022-08-19T09:58:34;2.55;;;0.70;;
52368;SDS011;38298;50.346;3.526;2022-08-19T10:01:00;5.03;;;0.60;;
52368;SDS011;38298;50.346;3.526;2022-08-19T10:03:28;2.90;;;0.80;;
52368;SDS011;38298;50.346;3.526;2022-08-19T10:05:55;1.83;;;1.00;;
52368;SDS011;38298;50.346;3.526;2022-08-19T10:08:26;1.88;;;0.98;;
52368;SDS011;38298;50.346;3.526;2022-08-19T10:10:52;2.30;;;1.05;;
52368;SDS011;38298;50.346;3.526;2022-08-19T10:13:21;2.72;;;1.20;;
52368;SDS011;38298;50.346;3.526;2022-08-19T10:15:50;2.30;;;1.15;;
52368;SDS011;38298;50.346;3.526;2022-08-19T10:18:17;1.50;;;1.08;;
52368;SDS011;38298;50.346;3.526;2022-08-19T10:20:44;1.52;;;1.00;;
52368;SDS011;38298;50.346;3.526;2022-08-19T10:23:11;2.47;;;0.90;;
52368;SDS011;38298;50.346;3.526;2022-08-19T10:25:37;1.17;;;0.80;;
52368;SDS011;38298;50.346;3.526;2022-08-19T10:28:03;1.33;;;1.10;;
52368;SDS011;38298;50.346;3.526;2022-08-19T10:30:31;1.58;;;1.00;;
52368;SDS011;38298;50.346;3.526;2022-08-19T10:32:57;1.70;;;0.90;;
52368;SDS011;38298;50.346;3.526;2022-08-19T10:35:23;0.73;;;0.73;;
52368;SDS011;38298;50.346;3.526;2022-08-19T10:37:54;3.97;;;1.15;;
52368;SDS011;38298;50.346;3.526;2022-08-19T10:40:24;1.02;;;0.80;;
52368;SDS011;38298;50.346;3.526;2022-08-19T10:42:50;1.13;;;0.90;;
52368;SDS011;38298;50.346;3.526;2022-08-19T10:45:16;0.85;;;0.70;;
52368;SDS011;38298;50.346;3.526;2022-08-19T10:47:42;1.55;;;0.80;;
52368;SDS011;38298;50.346;3.526;2022-08-19T10:50:08;0.70;;;0.60;;
52368;SDS011;38298;50.346;3.526;2022-08-19T10:52:53;1.45;;;0.80;;
52368;SDS011;38298;50.346;3.526;2022-08-19T10:55:20;1.77;;;0.73;;
52368;SDS011;38298;50.346;3.526;2022-08-19T10:58:09;1.50;;;0.60;;
52368;SDS011;38298;50.346;3.526;2022-08-19T11:00:35;1.77;;;0.80;;
52368;SDS011;38298;50.346;3.526;2022-08-19T11:03:02;1.10;;;0.50;;
52368;SDS011;38298;50.346;3.526;2022-08-19T11:05:28;2.45;;;0.70;;
52368;SDS011;38298;50.346;3.526;2022-08-19T11:07:55;1.17;;;0.55;;
52368;SDS011;38298;50.346;3.526;2022-08-19T11:10:21;3.00;;;0.60;;
52368;SDS011;38298;50.346;3.526;2022-08-19T11:12:48;3.45;;;0.52;;
52368;SDS011;38298;50.346;3.526;2022-08-19T11:15:18;1.20;;;0.60;;
52368;SDS011;38298;50.346;3.526;2022-08-19T11:17:44;3.08;;;0.63;;
52368;SDS011;38298;50.346;3.526;2022-08-19T11:20:11;1.50;;;0.50;;
52368;SDS011;38298;50.346;3.526;2022-08-19T11:22:37;0.95;;;0.60;;
52368;SDS011;38298;50.346;3.526;2022-08-19T11:25:04;2.03;;;0.65;;
52368;SDS011;38298;50.346;3.526;2022-08-19T11:27:30;0.77;;;0.47;;
52368;SDS011;38298;50.346;3.526;2022-08-19T11:29:56;1.35;;;0.75;;
52368;SDS011;38298;50.346;3.526;2022-08-19T11:32:22;4.32;;;0.70;;
52368;SDS011;38298;50.346;3.526;2022-08-19T11:34:48;1.50;;;0.77;;
52368;SDS011;38298;50.346;3.526;2022-08-19T11:37:14;3.25;;;0.88;;
52368;SDS011;38298;50.346;3.526;2022-08-19T11:39:40;1.50;;;0.60;;
52368;SDS011;38298;50.346;3.526;2022-08-19T11:42:07;0.95;;;0.60;;
52368;SDS011;38298;50.346;3.526;2022-08-19T11:44:52;4.40;;;1.10;;
52368;SDS011;38298;50.346;3.526;2022-08-19T11:47:18;4.80;;;0.98;;
52368;SDS011;38298;50.346;3.526;2022-08-19T11:49:45;1.30;;;1.20;;
52368;SDS011;38298;50.346;3.526;2022-08-19T11:52:11;2.10;;;1.30;;
52368;SDS011;38298;50.346;3.526;2022-08-19T11:54:37;3.00;;;1.30;;
52368;SDS011;38298;50.346;3.526;2022-08-19T11:57:03;1.63;;;1.30;;
52368;SDS011;38298;50.346;3.526;2022-08-19T11:59:30;6.60;;;1.38;;
52368;SDS011;38298;50.346;3.526;2022-08-19T12:01:56;1.55;;;1.27;;
52368;SDS011;38298;50.346;3.526;2022-08-19T12:04:22;2.10;;;1.05;;
52368;SDS011;38298;50.346;3.526;2022-08-19T12:06:48;1.63;;;1.40;;
52368;SDS011;38298;50.346;3.526;2022-08-19T12:09:15;2.83;;;1.55;;
52368;SDS011;38298;50.346;3.526;2022-08-19T12:11:43;2.72;;;1.63;;
52368;SDS011;38298;50.346;3.526;2022-08-19T12:14:10;3.63;;;1.38;;
52368;SDS011;38298;50.346;3.526;2022-08-19T12:16:36;2.83;;;1.80;;
52368;SDS011;38298;50.346;3.526;2022-08-19T12:19:04;4.32;;;2.00;;
52368;SDS011;38298;50.346;3.526;2022-08-19T12:21:31;2.00;;;1.30;;
52368;SDS011;38298;50.346;3.526;2022-08-19T12:23:58;1.70;;;1.30;;
52368;SDS011;38298;50.346;3.526;2022-08-19T12:26:24;1.13;;;0.77;;
52368;SDS011;38298;50.346;3.526;2022-08-19T12:28:51;1.75;;;0.65;;
52368;SDS011;38298;50.346;3.526;2022-08-19T12:31:17;1.02;;;0.85;;
52368;SDS011;38298;50.346;3.526;2022-08-19T12:33:44;1.98;;;1.00;;
52368;SDS011;38298;50.346;3.526;2022-08-19T12:36:11;2.05;;;1.00;;
52368;SDS011;38298;50.346;3.526;2022-08-19T12:38:38;1.75;;;0.98;;
52368;SDS011;38298;50.346;3.526;2022-08-19T12:41:05;4.63;;;1.00;;
52368;SDS011;38298;50.346;3.526;2022-08-19T12:43:34;4.10;;;0.90;;
52368;SDS011;38298;50.346;3.526;2022-08-19T12:46:01;1.08;;;0.80;;
52368;SDS011;38298;50.346;3.526;2022-08-19T12:48:29;4.78;;;1.38;;
52368;SDS011;38298;50.346;3.526;2022-08-19T12:50:55;1.50;;;1.10;;
52368;SDS011;38298;50.346;3.526;2022-08-19T12:53:21;1.48;;;0.95;;
52368;SDS011;38298;50.346;3.526;2022-08-19T12:55:53;1.80;;;0.80;;
52368;SDS011;38298;50.346;3.526;2022-08-19T12:58:20;1.17;;;0.93;;
52368;SDS011;38298;50.346;3.526;2022-08-19T13:00:47;1.30;;;1.05;;
52368;SDS011;38298;50.346;3.526;2022-08-19T13:03:14;1.77;;;1.23;;
52368;SDS011;38298;50.346;3.526;2022-08-19T13:05:40;3.17;;;1.50;;
52368;SDS011;38298;50.346;3.526;2022-08-19T13:08:07;1.52;;;1.42;;
52368;SDS011;38298;50.346;3.526;2022-08-19T13:10:34;2.58;;;1.50;;
52368;SDS011;38298;50.346;3.526;2022-08-19T13:13:01;2.45;;;1.60;;
52368;SDS011;38298;50.346;3.526;2022-08-19T13:15:27;1.65;;;1.48;;
52368;SDS011;38298;50.346;3.526;2022-08-19T13:17:56;3.33;;;1.05;;
52368;SDS011;38298;50.346;3.526;2022-08-19T13:20:23;1.77;;;1.30;;
52368;SDS011;38298;50.346;3.526;2022-08-19T13:22:50;4.80;;;1.38;;
52368;SDS011;38298;50.346;3.526;2022-08-19T13:25:16;3.30;;;1.35;;
52368;SDS011;38298;50.346;3.526;2022-08-19T13:27:44;3.80;;;1.65;;
52368;SDS011;38298;50.346;3.526;2022-08-19T13:30:12;5.80;;;1.90;;
52368;SDS011;38298;50.346;3.526;2022-08-19T13:32:57;3.13;;;1.90;;
52368;SDS011;38298;50.346;3.526;2022-08-19T13:38:08;3.38;;;1.75;;
52368;SDS011;38298;50.346;3.526;2022-08-19T13:40:35;3.42;;;1.77;;
52368;SDS011;38298;50.346;3.526;2022-08-19T13:43:02;7.43;;;1.70;;
52368;SDS011;38298;50.346;3.526;2022-08-19T13:45:29;3.13;;;1.60;;
52368;SDS011;38298;50.346;3.526;2022-08-19T13:47:58;3.25;;;1.77;;
52368;SDS011;38298;50.346;3.526;2022-08-19T13:50:25;1.85;;;1.20;;
52368;SDS011;38298;50.346;3.526;2022-08-19T13:52:53;4.18;;;1.17;;
52368;SDS011;38298;50.346;3.526;2022-08-19T13:55:19;1.40;;;0.90;;
52368;SDS011;38298;50.346;3.526;2022-08-19T13:57:45;0.77;;;0.73;;
52368;SDS011;38298;50.346;3.526;2022-08-19T14:00:14;1.35;;;0.63;;
52368;SDS011;38298;50.346;3.526;2022-08-19T14:02:42;3.17;;;0.60;;
52368;SDS011;38298;50.346;3.526;2022-08-19T14:05:10;2.22;;;0.70;;
52368;SDS011;38298;50.346;3.526;2022-08-19T14:07:37;0.95;;;0.60;;
52368;SDS011;38298;50.346;3.526;2022-08-19T14:10:03;1.95;;;0.30;;
52368;SDS011;38298;50.346;3.526;2022-08-19T14:12:31;1.73;;;0.40;;
52368;SDS011;38298;50.346;3.526;2022-08-19T14:14:57;1.17;;;0.30;;
52368;SDS011;38298;50.346;3.526;2022-08-19T14:17:23;1.25;;;0.30;;
52368;SDS011;38298;50.346;3.526;2022-08-19T14:19:50;0.50;;;0.20;;
52368;SDS011;38298;50.346;3.526;2022-08-19T14:22:17;0.60;;;0.30;;
52368;SDS011;38298;50.346;3.526;2022-08-19T14:24:43;1.60;;;0.32;;
52368;SDS011;38298;50.346;3.526;2022-08-19T14:27:09;3.53;;;0.40;;
52368;SDS011;38298;50.346;3.526;2022-08-19T14:29:36;0.10;;;0.10;;
52368;SDS011;38298;50.346;3.526;2022-08-19T14:32:02;1.55;;;0.32;;
52368;SDS011;38298;50.346;3.526;2022-08-19T14:34:28;2.42;;;0.40;;
52368;SDS011;38298;50.346;3.526;2022-08-19T14:36:56;0.20;;;0.10;;
52368;SDS011;38298;50.346;3.526;2022-08-19T14:39:22;0.20;;;0.20;;
52368;SDS011;38298;50.346;3.526;2022-08-19T14:41:48;0.20;;;0.20;;
52368;SDS011;38298;50.346;3.526;2022-08-19T14:44:15;0.28;;;0.20;;
52368;SDS011;38298;50.346;3.526;2022-08-19T14:46:41;0.63;;;0.30;;
52368;SDS011;38298;50.346;3.526;2022-08-19T14:49:10;0.90;;;0.50;;
52368;SDS011;38298;50.346;3.526;2022-08-19T14:51:36;3.33;;;0.47;;
52368;SDS011;38298;50.346;3.526;2022-08-19T14:54:02;1.13;;;0.57;;
52368;SDS011;38298;50.346;3.526;2022-08-19T14:56:28;1.90;;;0.70;;
52368;SDS011;38298;50.346;3.526;2022-08-19T14:58:55;1.77;;;0.60;;
52368;SDS011;38298;50.346;3.526;2022-08-19T15:01:24;2.20;;;0.50;;
52368;SDS011;38298;50.346;3.526;2022-08-19T15:03:51;0.63;;;0.40;;